Time;durP1;ratioP1;P1;durP2;ratioP2;P2;SDS_P1;SDS_P2;PMS_P1;PMS_P2;Temp;Humidity;BMP_temperature;BMP_pressure;BME280_temperature;BME280_humidity;BME280_pressure;Samples;Min_cycle;Max_cycle;Signal;HPM_P1;HPM_P2
2023/08/09 00:01:22;;;;;;;13.80;3.40;;;;;;;23.46;42.93;98719.04;136569;1281;22097;-61
2023/08/09 00:04:25;;;;;;;;;;;;;;;23.54;42.96;98713.29;136579;1281;22294;-61
2023/08/09 00:07:27;;;;;;;15.50;3.90;;;;;;;23.77;42.50;98714.33;136588;1281;22229;-61
2023/08/09 00:10:29;;;;;;;;;;;;;;;23.71;42.63;98719.44;136588;1281;22385;-61
2023/08/09 00:13:32;;;;;;;17.00;3.90;;;;;;;23.63;42.40;98716.70;136561;1281;22074;-61
2023/08/09 00:16:36;;;;;;;22.00;5.50;;;;;;;23.48;42.63;98714.34;136584;1281;22106;-61
2023/08/09 00:19:38;;;;;;;19.70;4.40;;;;;;;23.45;42.60;98715.36;136572;1281;22099;-61
2023/08/09 00:22:40;;;;;;;;;;;;;;;23.34;42.77;98713.27;136597;1281;22393;-61
2023/08/09 00:25:43;;;;;;;23.30;4.70;;;;;;;23.43;42.60;98719.23;136554;1281;22096;-61
2023/08/09 00:28:45;;;;;;;;;;;;;;;23.40;42.52;98717.91;136599;1263;22311;-61
2023/08/09 00:31:48;;;;;;;13.20;3.30;;;;;;;23.36;42.58;98720.02;136570;1281;22082;-61
2023/08/09 00:34:50;;;;;;;;;;;;;;;23.44;42.64;98720.83;136567;1281;22463;-61
2023/08/09 00:37:52;;;;;;;12.00;3.10;;;;;;;23.44;42.57;98723.88;136578;1281;22102;-61
2023/08/09 00:40:55;;;;;;;;;;;;;;;23.45;42.33;98722.48;136581;1281;22355;-61
2023/08/09 00:43:57;;;;;;;68.20;24.80;;;;;;;23.31;42.34;98719.85;136573;1281;22104;-61
2023/08/09 00:47:00;;;;;;;;;;;;;;;23.24;42.29;98719.94;136593;1262;22319;-61
2023/08/09 00:50:02;;;;;;;28.60;9.70;;;;;;;23.11;42.52;98723.02;136593;1266;22094;-61
2023/08/09 00:53:04;;;;;;;;;;;;;;;22.96;42.61;98725.92;136587;1265;22379;-61
2023/08/09 00:56:07;;;;;;;30.50;9.50;;;;;;;22.91;42.82;98729.89;136585;1281;22200;-61
2023/08/09 00:59:09;;;;;;;27.70;8.20;;;;;;;23.00;42.64;98723.70;136584;1262;22084;-61
2023/08/09 01:02:12;;;;;;;16.50;4.60;;;;;;;22.94;42.48;98720.35;136578;1281;22902;-61
2023/08/09 01:05:14;;;;;;;;;;;;;;;22.77;42.81;98725.45;136566;1281;23162;-61
2023/08/09 01:08:17;;;;;;;8.00;3.10;;;;;;;22.82;42.59;98719.19;136572;1281;22836;-61
2023/08/09 01:11:19;;;;;;;;;;;;;;;22.74;42.78;98722.73;136597;1281;22443;-61
2023/08/09 01:14:22;;;;;;;9.90;3.30;;;;;;;22.63;42.68;98713.95;136595;1281;22028;-61
2023/08/09 01:17:24;;;;;;;10.50;3.20;;;;;;;22.53;42.89;98718.58;136578;1281;22432;-61
2023/08/09 01:20:26;;;;;;;;;;;;;;;22.57;43.14;98724.42;136599;1281;22317;-61
2023/08/09 01:23:29;;;;;;;13.10;3.70;;;;;;;22.64;43.16;98720.99;136571;1281;22091;-61
2023/08/09 01:26:31;;;;;;;14.30;4.00;;;;;;;22.66;43.06;98716.84;136581;1281;22807;-61
2023/08/09 01:29:34;;;;;;;;;;;;;;;22.55;43.35;98721.50;136574;1281;23120;-61
2023/08/09 01:32:36;;;;;;;18.40;4.90;;;;;;;22.50;43.55;98720.96;136581;1281;22953;-61
2023/08/09 01:35:39;;;;;;;;;;;;;;;22.63;43.33;98726.15;136581;1281;23134;-61
2023/08/09 01:38:41;;;;;;;17.80;4.60;;;;;;;22.58;43.40;98722.36;136560;1281;22778;-61
2023/08/09 01:41:43;;;;;;;15.30;4.30;;;;;;;22.48;43.41;98728.21;136591;1281;22107;-61
2023/08/09 01:44:46;;;;;;;;;;;;;;;22.42;43.50;98728.27;136575;1281;22408;-61
2023/08/09 01:47:48;;;;;;;15.60;4.20;;;;;;;22.49;43.39;98729.84;136593;1281;22130;-61
2023/08/09 01:50:51;;;;;;;16.60;4.20;;;;;;;22.32;43.87;98731.18;136593;1281;22091;-61
2023/08/09 01:53:53;;;;;;;18.70;5.20;;;;;;;22.67;43.34;98735.83;136577;1281;22134;-61
2023/08/09 01:56:56;;;;;;;;;;;;;;;22.74;43.22;98734.72;136602;1281;22402;-61
2023/08/09 01:59:58;;;;;;;17.80;4.60;;;;;;;22.84;42.95;98732.17;136591;1281;22241;-61
2023/08/09 02:03:02;;;;;;;16.00;4.50;;;;;;;22.64;43.41;98731.90;136565;1262;22111;-61
2023/08/09 02:06:04;;;;;;;17.00;4.90;;;;;;;22.64;43.57;98729.83;136570;1281;22093;-61
2023/08/09 02:09:07;;;;;;;;;;;;;;;22.59;43.81;98730.18;136608;1281;23034;-61
2023/08/09 02:12:09;;;;;;;16.70;4.80;;;;;;;22.63;43.82;98724.75;136585;1281;22115;-61
2023/08/09 02:15:12;;;;;;;19.70;6.10;;;;;;;22.68;43.65;98725.79;136610;1281;22082;-61
2023/08/09 02:18:15;;;;;;;;;;;;;;;22.65;43.90;98729.00;136617;1281;22448;-61
2023/08/09 02:21:17;;;;;;;21.10;8.90;;;;;;;22.62;43.99;98737.48;136577;1281;22186;-61
2023/08/09 02:24:21;;;;;;;;;;;;;;;22.50;44.40;98742.17;136628;1281;22320;-61
2023/08/09 02:27:23;;;;;;;18.50;5.90;;;;;;;22.57;44.37;98737.87;136593;1281;22075;-61
2023/08/09 02:30:26;;;;;;;;;;;;;;;22.42;44.71;98737.95;136620;1262;22394;-61
2023/08/09 02:33:28;;;;;;;15.00;4.30;;;;;;;22.43;44.92;98741.72;136602;1281;22839;-61
2023/08/09 02:36:31;;;;;;;19.70;5.30;;;;;;;22.65;44.74;98744.12;136605;1281;22964;-61
2023/08/09 02:39:33;;;;;;;15.50;4.40;;;;;;;22.67;45.24;98750.63;136605;1281;22788;-61
2023/08/09 02:42:35;;;;;;;15.80;4.40;;;;;;;22.67;45.68;98749.90;136609;1281;22171;-61
2023/08/09 02:45:38;;;;;;;;;;;;;;;22.84;45.43;98748.41;136623;1281;22330;-61
2023/08/09 02:48:41;;;;;;;15.40;4.20;;;;;;;22.85;45.37;98746.70;136588;1281;22086;-61
2023/08/09 02:51:44;;;;;;;;;;;;;;;22.95;45.20;98746.02;136629;1281;23136;-61
2023/08/09 02:54:47;;;;;;;14.30;3.90;;;;;;;22.99;45.17;98743.63;136593;1281;22119;-61
2023/08/09 02:57:49;;;;;;;14.80;4.00;;;;;;;23.13;44.83;98739.36;136595;1261;22107;-61
2023/08/09 03:00:52;;;;;;;;;;;;;;;23.19;44.69;98738.15;136596;1281;22350;-61
2023/08/09 03:03:54;;;;;;;13.00;3.80;;;;;;;23.22;44.88;98740.35;136598;1281;22046;-61
2023/08/09 03:06:57;;;;;;;;;;;;;;;23.35;44.55;98741.33;136597;1281;23020;-61
2023/08/09 03:09:59;;;;;;;;;;;;;;;23.40;44.53;98744.10;136609;1281;22371;-61
2023/08/09 03:13:02;;;;;;;14.30;3.70;;;;;;;23.20;44.54;98742.23;136608;1281;22103;-60
2023/08/09 03:16:05;;;;;;;;;;;;;;;23.13;44.19;98741.90;136579;1281;23288;-61
2023/08/09 03:19:15;;;;;;;16.40;4.80;;;;;;;22.91;44.28;98741.03;132457;1281;5368507;-61
2023/08/09 03:22:18;;;;;;;;;;;;;;;22.76;44.65;98739.59;136591;1281;22412;-61
2023/08/09 03:25:20;;;;;;;13.60;4.30;;;;;;;22.78;44.76;98743.63;136603;1281;22079;-61
2023/08/09 03:28:23;;;;;;;;;;;;;;;22.83;44.79;98745.74;136614;1281;22358;-61
2023/08/09 03:31:25;;;;;;;16.60;5.00;;;;;;;23.00;44.46;98739.27;136611;1281;23022;-61
2023/08/09 03:34:27;;;;;;;;;;;;;;;23.18;44.22;98737.96;136634;1262;22295;-61
2023/08/09 03:37:30;;;;;;;16.80;4.80;;;;;;;23.20;44.00;98742.16;136603;1262;22099;-61
2023/08/09 03:40:32;;;;;;;;;;;;;;;23.05;44.32;98748.80;136591;1281;22438;-61
2023/08/09 03:43:35;;;;;;;18.40;5.20;;;;;;;23.08;44.31;98751.40;136594;1281;22103;-61
2023/08/09 03:46:37;;;;;;;19.70;4.90;;;;;;;23.11;44.09;98746.88;136593;1281;22124;-61
2023/08/09 03:49:40;;;;;;;;;;;;;;;23.13;43.84;98737.98;136614;1281;22339;-61
2023/08/09 03:52:42;;;;;;;19.00;5.50;;;;;;;23.17;43.94;98729.29;136604;1281;22308;-61
2023/08/09 03:55:44;;;;;;;;;;;;;;;23.03;44.04;98730.88;136591;1281;22327;-61
2023/08/09 03:58:47;;;;;;;17.90;5.30;;;;;;;22.91;44.32;98731.37;136577;1281;22093;-61
2023/08/09 04:01:49;;;;;;;17.30;4.70;;;;;;;22.79;44.71;98736.14;136587;1281;22088;-61
2023/08/09 04:04:52;;;;;;;;;;;;;;;22.85;44.82;98740.76;136609;1281;22354;-61
2023/08/09 04:07:54;;;;;;;20.40;3.90;;;;;;;23.03;44.47;98743.23;136585;1281;22099;-61
2023/08/09 04:10:56;;;;;;;;;;;;;;;23.01;44.69;98747.29;136597;1281;22844;-61
2023/08/09 04:13:59;;;;;;;15.50;3.80;;;;;;;23.29;44.63;98745.62;136610;1281;22257;-61
2023/08/09 04:17:01;;;;;;;14.90;4.60;;;;;;;23.60;44.28;98749.55;136594;1281;22314;-60
2023/08/09 04:20:08;;;;;;;;;;;;;;;23.73;44.48;98752.28;136623;1281;22366;-61
2023/08/09 04:23:11;;;;;;;13.90;3.80;;;;;;;24.17;43.80;98751.82;136613;1281;22149;-61
2023/08/09 04:26:13;;;;;;;;;;;;;;;24.27;44.08;98754.90;136613;1281;22341;-61
2023/08/09 04:29:16;;;;;;;17.40;5.20;;;;;;;24.53;44.04;98758.59;136596;1281;22100;-61
2023/08/09 04:32:18;;;;;;;;;;;;;;;24.78;43.62;98757.75;136605;1281;23062;-61
2023/08/09 04:35:21;;;;;;;20.50;6.60;;;;;;;24.80;43.44;98755.14;136573;1281;22240;-61
2023/08/09 04:38:24;;;;;;;;;;;;;;;24.75;43.71;98760.91;136610;1281;22320;-61
2023/08/09 04:41:27;;;;;;;21.30;6.10;;;;;;;24.86;43.91;98756.95;136607;1281;22249;-61
2023/08/09 04:44:29;;;;;;;;;;;;;;;24.90;44.14;98759.52;136614;1281;22499;-61
2023/08/09 04:47:32;;;;;;;20.70;5.90;;;;;;;25.07;43.86;98758.89;136613;1281;22238;-61
2023/08/09 04:50:34;;;;;;;22.80;7.20;;;;;;;25.13;43.73;98762.27;136583;1281;22885;-61
2023/08/09 04:53:36;;;;;;;;;;;;;;;25.09;44.02;98766.51;136634;1281;22417;-60
2023/08/09 04:56:39;;;;;;;21.50;5.80;;;;;;;25.13;44.18;98766.42;136596;1281;22807;-60
2023/08/09 04:59:41;;;;;;;25.00;6.50;;;;;;;25.26;44.09;98762.45;136604;1281;22141;-60
2023/08/09 05:02:44;;;;;;;27.00;7.10;;;;;;;25.41;43.85;98760.48;136585;1281;22848;-61
2023/08/09 05:05:46;;;;;;;22.20;6.40;;;;;;;25.46;43.69;98759.99;136595;1281;22079;-61
2023/08/09 05:08:49;;;;;;;;;;;;;;;25.45;43.72;98766.96;136626;1281;22359;-61
2023/08/09 05:11:51;;;;;;;21.10;5.60;;;;;;;25.56;43.74;98771.65;136596;1281;22126;-61
2023/08/09 05:14:53;;;;;;;;;;;;;;;25.85;43.66;98770.59;136605;1271;22389;-61
2023/08/09 05:17:56;;;;;;;22.40;7.20;;;;;;;25.92;43.66;98772.11;136595;1281;22137;-61
2023/08/09 05:20:59;;;;;;;;;;;;;;;26.02;44.01;98771.21;136601;1281;22334;-61
2023/08/09 05:24:02;;;;;;;19.60;5.40;;;;;;;26.35;44.04;98771.98;136610;1281;22078;-61
2023/08/09 05:27:04;;;;;;;21.40;6.00;;;;;;;26.39;43.98;98776.48;136559;1281;22717;-60
2023/08/09 05:30:07;;;;;;;19.30;5.60;;;;;;;26.46;43.66;98780.73;136605;1263;22122;-61
2023/08/09 05:33:09;;;;;;;18.00;4.70;;;;;;;26.65;43.19;98783.96;136586;1281;22093;-61
2023/08/09 05:36:12;;;;;;;15.60;4.80;;;;;;;26.57;43.25;98784.61;136606;1281;22320;-60
2023/08/09 05:39:14;;;;;;;18.60;4.90;;;;;;;26.53;43.30;98783.65;136607;1281;22090;-60
2023/08/09 05:42:16;;;;;;;17.90;6.00;;;;;;;26.54;43.50;98785.50;136603;1264;22078;-61
2023/08/09 05:45:19;;;;;;;14.90;4.50;;;;;;;26.45;43.90;98779.11;136613;1264;22087;-60
2023/08/09 05:48:21;;;;;;;15.60;4.10;;;;;;;26.63;43.59;98775.68;136596;1281;22092;-61
2023/08/09 05:51:24;;;;;;;15.70;4.30;;;;;;;26.68;43.31;98773.48;136597;1281;22143;-61
2023/08/09 05:54:27;;;;;;;19.40;4.50;;;;;;;26.74;43.10;98774.67;136606;1271;22148;-60
2023/08/09 05:57:30;;;;;;;14.80;4.10;;;;;;;27.02;42.70;98771.12;136619;1274;22788;-61
2023/08/09 06:00:32;;;;;;;14.80;4.00;;;;;;;27.02;42.92;98773.36;136591;1281;22860;-60
2023/08/09 06:03:38;;;;;;;16.70;4.40;;;;;;;27.31;42.73;98775.27;136613;1281;22128;-61
2023/08/09 06:06:42;;;;;;;16.60;4.70;;;;;;;27.60;42.46;98777.22;136602;1281;22154;-61
2023/08/09 06:09:44;;;;;;;16.30;4.50;;;;;;;27.66;42.64;98781.50;136608;1281;22093;-61
2023/08/09 06:12:46;;;;;;;17.90;4.30;;;;;;;28.01;42.30;98785.13;136632;1281;22097;-60
2023/08/09 06:15:49;;;;;;;20.20;5.30;;;;;;;28.31;42.17;98781.14;136614;1281;22291;-61
2023/08/09 06:18:51;;;;;;;17.50;5.10;;;;;;;28.66;41.24;98778.30;136608;1281;22075;-61
2023/08/09 06:21:54;;;;;;;14.30;4.20;;;;;;;28.58;41.15;98783.66;136619;1277;22103;-61
2023/08/09 06:24:56;;;;;;;17.10;4.40;;;;;;;28.75;41.07;98782.30;136606;1281;22074;-61
2023/08/09 06:27:59;;;;;;;16.60;4.50;;;;;;;29.21;40.70;98780.02;136611;1281;22083;-60
2023/08/09 06:31:01;;;;;;;18.30;5.20;;;;;;;29.52;40.36;98779.10;136589;1277;22119;-61
2023/08/09 06:34:04;;;;;;;16.00;4.20;;;;;;;29.64;39.97;98779.73;136606;1281;22141;-61
2023/08/09 06:37:06;;;;;;;14.90;4.10;;;;;;;29.63;40.02;98784.15;136598;1281;22127;-61
2023/08/09 06:40:09;;;;;;;16.50;4.20;;;;;;;29.65;39.61;98791.48;136603;1281;22176;-60
2023/08/09 06:43:11;;;;;;;11.80;3.60;;;;;;;29.54;38.60;98788.73;136618;1281;22101;-60
2023/08/09 06:46:13;;;;;;;15.70;4.10;;;;;;;29.38;38.78;98787.92;136615;1281;22089;-60
2023/08/09 06:49:16;;;;;;;12.80;3.90;;;;;;;29.47;38.88;98788.15;136644;1281;22204;-61
2023/08/09 06:52:19;;;;;;;16.60;4.40;;;;;;;29.17;38.87;98785.97;136617;1258;22117;-61
2023/08/09 06:55:21;;;;;;;15.90;4.20;;;;;;;29.00;39.26;98783.17;136602;1281;22123;-61
2023/08/09 06:58:24;;;;;;;13.50;3.70;;;;;;;29.06;38.83;98784.68;136608;1281;22095;-60
2023/08/09 07:01:26;;;;;;;16.70;4.10;;;;;;;29.19;38.76;98785.33;136598;1281;22119;-60
2023/08/09 07:04:28;;;;;;;18.10;4.20;;;;;;;29.35;38.49;98783.15;136585;1281;22091;-60
2023/08/09 07:07:31;;;;;;;13.30;3.80;;;;;;;29.55;38.76;98787.50;136601;1281;22116;-60
2023/08/09 07:10:33;;;;;;;14.90;3.80;;;;;;;29.91;38.59;98788.56;136600;1281;22267;-61
2023/08/09 07:13:36;;;;;;;16.80;3.90;;;;;;;29.85;38.07;98789.06;136600;1281;22895;-61
2023/08/09 07:16:38;;;;;;;15.70;4.10;;;;;;;29.86;37.82;98791.89;136636;1281;22323;-61
2023/08/09 07:19:41;;;;;;;12.70;3.30;;;;;;;29.84;38.12;98786.53;136621;1281;23007;-61
2023/08/09 07:22:44;;;;;;;10.10;2.90;;;;;;;29.76;37.65;98779.69;136561;1281;22271;-61
2023/08/09 07:25:46;;;;;;;16.10;4.10;;;;;;;29.80;37.45;98780.82;136545;1264;22241;-61
2023/08/09 07:28:48;;;;;;;20.70;5.50;;;;;;;29.88;37.25;98776.83;136510;1281;22154;-61
2023/08/09 07:31:51;;;;;;;14.10;3.70;;;;;;;30.35;37.13;98774.02;136545;1281;22174;-61
2023/08/09 07:34:53;;;;;;;11.30;3.10;;;;;;;30.48;36.46;98775.92;136543;1281;22587;-61
2023/08/09 07:37:56;;;;;;;14.20;3.40;;;;;;;30.36;36.37;98778.48;136611;1276;22122;-61
2023/08/09 07:40:58;;;;;;;13.40;3.40;;;;;;;30.31;36.34;98779.65;136633;1281;22134;-61
2023/08/09 07:44:01;;;;;;;11.60;3.30;;;;;;;30.49;36.39;98778.88;136614;1281;22106;-61
2023/08/09 07:47:04;;;;;;;11.90;3.10;;;;;;;30.85;35.88;98779.66;136617;1281;22722;-60
2023/08/09 07:50:06;;;;;;;11.60;3.20;;;;;;;31.20;35.54;98784.67;136618;1281;22190;-61
2023/08/09 07:53:09;;;;;;;11.60;3.00;;;;;;;31.29;35.06;98783.40;136613;1281;22128;-60
2023/08/09 07:56:11;;;;;;;10.60;2.90;;;;;;;31.53;34.58;98786.47;136594;1281;22094;-60
2023/08/09 07:59:14;;;;;;;13.20;3.00;;;;;;;32.17;34.59;98781.85;136632;1268;22194;-60
2023/08/09 08:02:16;;;;;;;10.70;3.10;;;;;;;32.65;34.25;98781.89;136594;1281;22095;-61
2023/08/09 08:05:18;;;;;;;10.70;2.60;;;;;;;32.75;33.66;98779.73;136593;1281;22051;-61
2023/08/09 08:08:21;;;;;;;13.60;3.00;;;;;;;32.73;33.25;98781.43;136631;1281;22151;-61
2023/08/09 08:11:23;;;;;;;14.00;2.70;;;;;;;32.67;33.26;98777.99;136617;1281;22095;-61
2023/08/09 08:14:26;;;;;;;10.30;2.90;;;;;;;32.97;33.39;98771.77;136623;1281;23009;-61
2023/08/09 08:17:29;;;;;;;10.40;3.10;;;;;;;33.03;32.88;98769.66;136620;1281;22920;-61
2023/08/09 08:20:32;;;;;;;13.50;3.70;;;;;;;33.18;32.78;98768.37;136632;1281;22750;-61
2023/08/09 08:23:35;;;;;;;14.20;3.30;;;;;;;33.14;33.44;98770.36;136611;1281;22114;-61
2023/08/09 08:26:37;;;;;;;10.00;3.50;;;;;;;33.01;32.17;98768.64;136615;1281;22144;-60
2023/08/09 08:29:39;;;;;;;12.70;2.70;;;;;;;33.03;32.36;98770.73;136626;1281;22123;-61
2023/08/09 08:32:42;;;;;;;9.10;2.80;;;;;;;33.22;32.43;98770.79;136627;1281;22127;-61
2023/08/09 08:35:48;;;;;;;12.60;3.20;;;;;;;33.43;32.22;98771.57;136622;1281;23029;-61
2023/08/09 08:38:50;;;;;;;12.00;2.90;;;;;;;33.73;31.97;98772.27;136634;1281;22146;-60
2023/08/09 08:41:53;;;;;;;10.10;3.00;;;;;;;33.81;31.29;98769.13;136623;1281;22144;-61
2023/08/09 08:44:55;;;;;;;9.80;2.90;;;;;;;33.70;31.11;98768.17;136602;1281;22131;-60
2023/08/09 08:47:57;;;;;;;9.30;2.80;;;;;;;33.62;31.28;98765.86;136611;1281;22110;-61
2023/08/09 08:51:00;;;;;;;10.20;3.10;;;;;;;33.48;31.38;98760.92;136617;1261;22126;-61
2023/08/09 08:54:02;;;;;;;14.60;3.30;;;;;;;33.51;31.40;98763.38;136612;1281;22858;-61
2023/08/09 08:57:05;;;;;;;9.30;3.30;;;;;;;34.06;31.22;98766.31;136623;1281;22149;-61
2023/08/09 09:00:15;;;;;;;12.80;3.30;;;;;;;34.46;30.94;98758.21;136614;1281;22072;-61
2023/08/09 09:03:17;;;;;;;11.80;3.10;;;;;;;34.86;30.81;98755.31;136618;1281;22111;-61
2023/08/09 09:06:21;;;;;;;11.50;3.10;;;;;;;34.73;29.25;98754.55;136618;1281;22580;-61
2023/08/09 09:09:24;;;;;;;8.60;2.90;;;;;;;33.62;29.20;98753.77;136621;1281;22876;-61
2023/08/09 09:12:26;;;;;;;10.30;2.70;;;;;;;33.12;30.01;98751.63;136628;1264;22126;-61
2023/08/09 09:15:28;;;;;;;9.50;2.80;;;;;;;33.08;30.25;98752.80;136629;1281;22331;-61
2023/08/09 09:18:31;;;;;;;9.00;2.70;;;;;;;33.37;30.39;98751.84;136626;1281;22058;-61
2023/08/09 09:21:34;;;;;;;13.70;3.10;;;;;;;33.83;30.22;98754.73;136603;1281;22153;-60
2023/08/09 09:24:36;;;;;;;12.90;3.30;;;;;;;33.69;29.34;98753.58;136647;1281;22341;-61
2023/08/09 09:27:39;;;;;;;8.60;2.60;;;;;;;33.70;29.89;98750.55;136624;1281;22176;-61
2023/08/09 09:30:42;;;;;;;12.70;3.20;;;;;;;34.24;29.83;98745.85;136652;1281;22924;-61
2023/08/09 09:33:44;;;;;;;8.70;2.80;;;;;;;34.51;29.31;98744.50;136627;1281;22068;-61
2023/08/09 09:36:48;;;;;;;11.10;2.80;;;;;;;35.00;28.37;98742.92;136649;1257;22087;-61
2023/08/09 09:39:51;;;;;;;14.70;2.90;;;;;;;35.10;27.77;98734.10;136611;1281;22199;-61
2023/08/09 09:42:54;;;;;;;9.70;2.70;;;;;;;34.71;27.40;98732.00;136624;1281;22057;-61
2023/08/09 09:45:56;;;;;;;10.30;2.80;;;;;;;33.71;27.22;98728.88;136626;1281;22122;-61
2023/08/09 09:48:59;;;;;;;11.20;3.10;;;;;;;33.29;28.41;98734.14;136623;1281;22113;-60
2023/08/09 09:52:03;;;;;;;11.50;2.80;;;;;;;32.96;28.62;98736.59;136615;1281;22103;-61
2023/08/09 09:55:06;;;;;;;13.60;3.40;;;;;;;32.24;29.30;98740.83;136648;1281;22790;-61
2023/08/09 09:58:09;;;;;;;9.50;2.80;;;;;;;31.50;29.76;98740.65;136623;1281;22119;-60
2023/08/09 10:01:11;;;;;;;14.70;3.20;;;;;;;30.82;30.13;98734.91;136641;1281;22109;-61
2023/08/09 10:04:14;;;;;;;8.50;2.70;;;;;;;30.41;30.92;98734.21;136644;1261;22250;-61
2023/08/09 10:07:16;;;;;;;15.20;3.40;;;;;;;30.42;31.25;98736.30;136633;1281;22135;-61
2023/08/09 10:10:18;;;;;;;14.70;3.30;;;;;;;30.40;31.34;98730.55;136626;1261;22104;-61
2023/08/09 10:13:21;;;;;;;9.00;3.00;;;;;;;30.43;31.72;98729.38;136649;1261;22096;-61
2023/08/09 10:16:23;;;;;;;13.00;3.10;;;;;;;30.41;31.48;98730.02;136629;1280;22264;-60
2023/08/09 10:19:26;;;;;;;13.20;3.40;;;;;;;30.42;31.80;98729.69;136649;1281;22290;-61
2023/08/09 10:22:28;;;;;;;10.90;3.00;;;;;;;30.22;31.37;98733.35;136650;1261;22078;-60
2023/08/09 10:25:31;;;;;;;14.50;3.60;;;;;;;29.85;31.30;98731.30;136644;1281;22120;-60
2023/08/09 10:28:33;;;;;;;11.00;3.00;;;;;;;29.72;31.68;98730.02;136647;1281;22269;-61
2023/08/09 10:31:35;;;;;;;14.30;3.70;;;;;;;29.93;31.42;98728.00;136643;1260;22119;-61
2023/08/09 10:34:40;;;;;;;14.90;3.30;;;;;;;30.34;31.64;98732.48;136645;1281;22916;-61
2023/08/09 10:37:43;;;;;;;10.70;3.10;;;;;;;30.55;31.37;98724.02;136635;1257;22118;-61
2023/08/09 10:40:45;;;;;;;9.10;2.50;;;;;;;30.77;31.40;98731.30;136627;1281;22315;-61
2023/08/09 10:43:47;;;;;;;11.20;3.20;;;;;;;30.49;30.56;98731.13;136639;1280;22092;-60
2023/08/09 10:46:50;;;;;;;11.20;2.90;;;;;;;30.24;31.09;98731.57;136636;1279;22081;-61
2023/08/09 10:49:52;;;;;;;10.10;3.10;;;;;;;29.78;31.23;98734.17;136644;1281;22197;-61
2023/08/09 10:52:55;;;;;;;9.90;3.10;;;;;;;29.70;31.31;98729.17;136656;1281;22113;-61
2023/08/09 10:55:58;;;;;;;9.80;3.10;;;;;;;29.70;31.64;98736.62;136645;1281;22171;-61
2023/08/09 10:59:00;;;;;;;14.10;3.10;;;;;;;29.67;31.97;98739.54;136646;1281;22751;-60
2023/08/09 11:02:02;;;;;;;13.40;3.00;;;;;;;29.66;31.73;98743.73;136638;1281;22118;-61
2023/08/09 11:05:05;;;;;;;12.00;3.10;;;;;;;29.41;32.28;98751.20;136660;1281;22081;-61
2023/08/09 11:08:07;;;;;;;14.70;3.40;;;;;;;29.02;33.28;98761.45;136643;1281;22893;-61
2023/08/09 11:11:10;;;;;;;10.00;2.80;;;;;;;28.51;34.13;98775.66;136657;1262;22107;-60
2023/08/09 11:14:12;;;;;;;12.50;3.30;;;;;;;27.98;35.73;98786.58;136643;1261;22122;-61
2023/08/09 11:17:15;;;;;;;14.10;3.10;;;;;;;28.05;36.61;98780.04;136647;1281;22148;-61
2023/08/09 11:20:19;;;;;;;8.90;2.80;;;;;;;27.85;36.69;98787.73;136627;1262;22150;-61
2023/08/09 11:23:21;;;;;;;10.10;2.90;;;;;;;27.79;37.07;98785.73;136643;1262;22133;-60
2023/08/09 11:26:24;;;;;;;11.30;3.00;;;;;;;28.07;37.56;98784.64;136656;1281;22248;-61
2023/08/09 11:29:27;;;;;;;9.20;2.60;;;;;;;28.59;37.04;98777.77;136628;1281;22129;-61
2023/08/09 11:32:31;;;;;;;13.10;2.80;;;;;;;28.90;36.76;98780.52;136633;1281;22137;-60
2023/08/09 11:35:34;;;;;;;10.30;3.10;;;;;;;28.96;36.71;98782.60;136634;1281;22115;-60
2023/08/09 11:38:37;;;;;;;11.40;3.60;;;;;;;29.00;36.67;98781.67;136616;1281;22091;-60
2023/08/09 11:41:39;;;;;;;9.90;2.90;;;;;;;28.87;36.51;98772.85;136649;1281;22097;-60
2023/08/09 11:44:43;;;;;;;10.20;2.90;;;;;;;28.74;36.27;98776.01;136637;1262;22096;-60
2023/08/09 11:47:45;;;;;;;9.80;3.00;;;;;;;28.86;36.55;98778.45;136648;1281;22091;-61
2023/08/09 11:50:48;;;;;;;10.60;2.80;;;;;;;29.03;36.24;98777.13;136651;1281;22190;-61
2023/08/09 11:53:50;;;;;;;7.30;2.50;;;;;;;29.25;35.72;98784.32;136627;1281;22069;-61
2023/08/09 11:56:53;;;;;;;9.10;2.40;;;;;;;29.49;35.33;98772.52;136623;1281;23191;-61
2023/08/09 11:59:55;;;;;;;11.40;2.80;;;;;;;29.61;34.72;98769.89;136626;1257;22104;-61
2023/08/09 12:03:03;;;;;;;9.90;2.70;;;;;;;29.48;34.69;98779.66;136630;1281;22122;-60
2023/08/09 12:06:05;;;;;;;9.10;2.40;;;;;;;29.15;35.05;98779.46;136657;1258;22143;-60
2023/08/09 12:09:08;;;;;;;8.40;2.50;;;;;;;28.94;35.06;98779.41;136665;1281;22122;-61
2023/08/09 12:12:10;;;;;;;7.10;2.30;;;;;;;28.86;35.35;98778.61;136643;1262;22126;-61
2023/08/09 12:15:14;;;;;;;10.40;2.40;;;;;;;28.86;35.18;98780.83;136633;1281;22084;-60
2023/08/09 12:18:17;;;;;;;10.70;3.00;;;;;;;28.79;35.52;98783.66;136637;1281;22412;-61
2023/08/09 12:21:20;;;;;;;7.60;2.50;;;;;;;28.52;35.72;98786.46;136644;1281;22091;-61
2023/08/09 12:24:22;;;;;;;7.40;2.40;;;;;;;28.11;36.46;98794.19;136640;1258;22134;-61
2023/08/09 12:27:25;;;;;;;8.20;2.50;;;;;;;27.96;36.88;98791.84;136645;1281;22094;-61
2023/08/09 12:30:27;;;;;;;7.60;3.00;;;;;;;27.88;37.22;98787.64;136640;1281;22137;-61
2023/08/09 12:33:30;;;;;;;11.50;3.20;;;;;;;27.82;37.48;98785.23;136649;1281;22165;-61
2023/08/09 12:36:32;;;;;;;8.80;2.60;;;;;;;27.66;37.65;98787.45;136651;1281;22808;-61
2023/08/09 12:39:35;;;;;;;10.10;2.70;;;;;;;27.76;37.84;98789.98;136606;1281;22794;-61
2023/08/09 12:42:38;;;;;;;8.40;2.80;;;;;;;27.97;37.69;98788.89;136632;1281;22145;-61
2023/08/09 12:45:40;;;;;;;9.00;2.80;;;;;;;28.09;37.66;98784.89;136620;1281;22088;-61
2023/08/09 12:48:42;;;;;;;12.00;3.10;;;;;;;28.30;37.74;98781.88;136653;1281;22102;-61
2023/08/09 12:51:45;;;;;;;8.60;2.70;;;;;;;28.38;37.78;98784.90;136630;1281;22282;-61
2023/08/09 12:54:47;;;;;;;11.30;3.10;;;;;;;28.45;37.98;98786.09;136643;1281;22273;-60
2023/08/09 12:57:49;;;;;;;11.00;2.80;;;;;;;28.36;38.42;98782.72;136626;1259;22303;-60
2023/08/09 13:00:53;;;;;;;11.80;3.40;;;;;;;28.53;38.54;98785.33;136634;1281;22773;-61
2023/08/09 13:03:55;;;;;;;11.90;3.10;;;;;;;28.69;38.76;98783.65;136639;1281;22081;-61
2023/08/09 13:06:58;;;;;;;13.60;3.80;;;;;;;28.87;38.55;98781.61;136659;1281;22098;-60
2023/08/09 13:10:00;;;;;;;19.10;4.60;;;;;;;29.06;38.50;98777.25;136639;1281;22870;-61
2023/08/09 13:13:03;;;;;;;11.00;3.30;;;;;;;29.16;38.80;98771.97;136646;1281;22088;-60
2023/08/09 13:16:06;;;;;;;13.30;3.70;;;;;;;29.40;38.65;98764.25;136617;1281;22084;-60
2023/08/09 13:19:09;;;;;;;12.20;3.50;;;;;;;29.73;38.40;98764.27;136631;1281;22280;-61
2023/08/09 13:22:11;;;;;;;15.50;3.90;;;;;;;29.81;38.32;98764.35;136638;1281;22194;-61
2023/08/09 13:25:14;;;;;;;10.30;3.20;;;;;;;29.96;37.96;98764.16;136628;1281;22086;-60
2023/08/09 13:28:16;;;;;;;14.20;3.60;;;;;;;30.07;37.78;98763.61;136636;1281;22209;-61
2023/08/09 13:31:19;;;;;;;12.40;3.20;;;;;;;30.25;37.64;98762.86;136631;1281;22133;-61
2023/08/09 13:34:21;;;;;;;9.30;3.10;;;;;;;30.11;38.08;98764.45;136649;1281;22180;-61
2023/08/09 13:37:24;;;;;;;12.40;3.90;;;;;;;30.16;37.85;98762.31;136635;1281;22684;-60
2023/08/09 13:40:26;;;;;;;12.10;3.50;;;;;;;30.20;37.33;98761.79;136678;1281;22828;-60
2023/08/09 13:43:28;;;;;;;10.40;3.50;;;;;;;30.07;37.55;98759.83;136627;1281;22988;-61
2023/08/09 13:46:32;;;;;;;14.60;3.80;;;;;;;30.15;37.79;98755.09;136634;1281;22157;-60
2023/08/09 13:49:36;;;;;;;12.70;3.50;;;;;;;30.24;37.85;98757.49;136651;1281;22124;-61
2023/08/09 13:52:38;;;;;;;11.40;3.40;;;;;;;30.58;37.47;98754.26;136636;1281;22168;-61
2023/08/09 13:55:41;;;;;;;11.00;3.50;;;;;;;30.67;37.29;98750.08;136632;1281;22098;-60
2023/08/09 13:58:43;;;;;;;10.50;3.40;;;;;;;30.88;37.26;98748.11;136660;1281;22559;-61
2023/08/09 14:01:45;;;;;;;13.90;3.60;;;;;;;30.91;37.39;98746.04;136645;1281;22094;-61
2023/08/09 14:04:48;;;;;;;14.20;3.70;;;;;;;30.90;37.42;98743.16;136639;1281;22071;-61
2023/08/09 14:07:50;;;;;;;12.10;3.50;;;;;;;31.06;36.94;98739.06;136617;1281;22124;-61
2023/08/09 14:10:53;;;;;;;13.50;3.80;;;;;;;31.00;37.01;98737.70;136614;1281;23030;-61
2023/08/09 14:13:55;;;;;;;10.60;3.40;;;;;;;30.87;37.38;98729.80;136622;1281;22440;-61